Time;durP1;ratioP1;P1;durP2;ratioP2;P2;SDS_P1;SDS_P2;PMS_P1;PMS_P2;Temp;Humidity;BMP_temperature;BMP_pressure;BME280_temperature;BME280_humidity;BME280_pressure;Samples;Min_cycle;Max_cycle;Signal;HPM_P1;HPM_P2
2022/09/10 08:51:26;;;;;;;26.17;13.50;;;16.30;99.90;;;;;;5131105;27;20373;-74
2022/09/10 08:54:12;;;;;;;24.98;11.77;;;16.30;99.90;;;;;;5130006;27;20458;-82
2022/09/10 08:56:40;;;;;;;24.88;10.75;;;16.40;99.90;;;;;;5129681;27;20505;-73
2022/09/10 08:59:21;;;;;;;26.33;11.07;;;16.30;99.90;;;;;;5129274;28;20130;-72
2022/09/10 09:01:54;;;;;;;25.25;11.40;;;16.40;99.90;;;;;;5131044;27;20054;-74
2022/09/10 09:04:46;;;;;;;24.73;10.82;;;16.50;99.90;;;;;;5130743;27;20387;-75
2022/09/10 09:07:14;;;;;;;22.05;10.90;;;16.40;99.90;;;;;;5128932;27;20073;-78
2022/09/10 09:09:40;;;;;;;24.17;10.10;;;16.40;99.90;;;;;;5130112;27;20126;-77
2022/09/10 09:12:24;;;;;;;21.58;10.90;;;16.40;99.90;;;;;;5130162;27;20514;-76
2022/09/10 09:15:12;;;;;;;20.23;10.40;;;16.40;99.90;;;;;;5129482;28;20457;-77
2022/09/10 09:17:50;;;;;;;22.33;12.10;;;16.30;99.90;;;;;;5129085;28;20051;-77
2022/09/10 09:20:45;;;;;;;23.73;10.43;;;16.30;99.90;;;;;;5130212;27;20118;-72
2022/09/10 09:23:21;;;;;;;22.45;10.70;;;16.30;99.90;;;;;;5130497;27;20069;-72
2022/09/10 09:25:52;;;;;;;22.85;10.88;;;16.20;99.90;;;;;;5130421;28;20456;-76
2022/09/10 09:28:45;;;;;;;21.70;10.15;;;16.30;99.90;;;;;;5130315;27;20047;-76
2022/09/10 09:31:25;;;;;;;20.30;9.50;;;16.30;99.90;;;;;;5129821;27;20548;-72
2022/09/10 09:33:54;;;;;;;19.75;10.15;;;16.40;99.90;;;;;;5130056;27;20478;-77
2022/09/10 09:36:29;;;;;;;22.50;10.65;;;16.40;99.90;;;;;;5130100;27;20468;-76
2022/09/10 09:38:55;;;;;;;18.58;8.98;;;16.50;99.90;;;;;;5130004;27;20429;-74
2022/09/10 09:41:45;;;;;;;19.13;9.25;;;16.60;99.90;;;;;;5130042;28;20047;-76
2022/09/10 09:44:27;;;;;;;19.45;9.25;;;16.60;99.90;;;;;;5110733;28;20126;-72
2022/09/10 09:46:53;;;;;;;18.63;8.77;;;16.80;99.90;;;;;;5109990;28;20095;-72
2022/09/10 09:49:18;;;;;;;18.42;8.27;;;16.90;99.90;;;;;;5128441;27;20094;-77
2022/09/10 09:51:46;;;;;;;18.77;9.30;;;17.00;99.90;;;;;;5127801;27;20531;-73
2022/09/10 09:54:20;;;;;;;18.25;9.00;;;17.10;99.90;;;;;;5129978;27;20368;-77
2022/09/10 09:56:49;;;;;;;16.80;8.80;;;17.30;99.90;;;;;;5130024;27;20079;-74
2022/09/10 09:59:29;;;;;;;15.23;8.77;;;17.40;99.90;;;;;;5129776;27;20421;-72
2022/09/10 10:01:59;;;;;;;17.13;8.88;;;17.50;99.90;;;;;;5101760;28;20515;-75
2022/09/10 10:04:29;;;;;;;17.17;8.85;;;17.60;99.90;;;;;;5115461;28;20491;-74
2022/09/10 10:07:00;;;;;;;18.63;9.20;;;17.70;99.90;;;;;;5095364;28;20135;-79
2022/09/10 10:09:28;;;;;;;17.88;8.52;;;17.80;99.90;;;;;;5094103;28;20059;-76
2022/09/10 10:12:04;;;;;;;18.45;9.38;;;17.90;99.90;;;;;;5094188;28;20044;-78
2022/09/10 10:14:35;;;;;;;18.77;9.52;;;17.90;99.90;;;;;;5095432;28;20036;-74
2022/09/10 10:17:01;;;;;;;19.20;9.55;;;18.00;99.90;;;;;;5094962;28;20040;-73
2022/09/10 10:19:35;;;;;;;16.63;9.02;;;18.10;99.90;;;;;;5107838;28;20084;-73
2022/09/10 10:22:13;;;;;;;17.80;8.43;;;18.20;99.90;;;;;;5115465;28;20403;-74
2022/09/10 10:24:44;;;;;;;16.25;8.70;;;18.20;99.90;;;;;;5115204;28;20062;-72
2022/09/10 10:27:46;;;;;;;16.90;8.15;;;18.30;99.90;;;;;;5114574;28;20054;-74
2022/09/10 10:30:20;;;;;;;16.65;7.85;;;18.30;99.90;;;;;;5115564;28;20043;-73
2022/09/10 10:33:00;;;;;;;16.35;8.23;;;18.30;99.90;;;;;;5115342;28;20122;-74
2022/09/10 10:35:47;;;;;;;14.60;7.57;;;18.30;99.90;;;;;;5115387;28;20495;-75
2022/09/10 10:38:25;;;;;;;13.55;7.15;;;18.30;99.90;;;;;;5115585;28;20165;-74
2022/09/10 10:41:08;;;;;;;13.32;6.57;;;18.30;99.90;;;;;;5113955;28;20054;-75
2022/09/10 10:43:47;;;;;;;12.77;6.60;;;18.30;99.90;;;;;;5097215;28;20503;-73
2022/09/10 10:46:17;;;;;;;12.82;6.82;;;18.30;99.90;;;;;;5113893;28;20039;-72
2022/09/10 10:48:52;;;;;;;14.82;6.88;;;18.20;99.90;;;;;;5114841;28;20054;-72
2022/09/10 10:51:24;;;;;;;12.93;7.15;;;18.20;99.90;;;;;;5115259;28;20054;-72
2022/09/10 10:53:52;;;;;;;11.68;6.18;;;18.10;99.90;;;;;;5114001;28;20043;-72
2022/09/10 10:56:43;;;;;;;14.82;6.90;;;18.10;99.90;;;;;;5113666;28;20073;-73
2022/09/10 10:59:24;;;;;;;15.65;7.40;;;18.00;99.90;;;;;;5130759;27;20417;-71
2022/09/10 11:01:58;;;;;;;13.40;6.63;;;18.00;99.90;;;;;;5113207;28;20039;-73
2022/09/10 11:04:37;;;;;;;14.70;7.30;;;18.00;99.90;;;;;;5113234;28;20051;-75
2022/09/10 11:07:17;;;;;;;13.88;6.65;;;18.00;99.90;;;;;;5113987;28;20493;-71
2022/09/10 11:10:18;;;;;;;14.38;7.28;;;18.00;99.90;;;;;;5113497;28;20044;-75
2022/09/10 11:13:02;;;;;;;13.43;6.55;;;18.10;99.90;;;;;;5091454;28;20068;-73
2022/09/10 11:15:42;;;;;;;15.15;6.18;;;18.20;99.90;;;;;;5093152;28;20372;-73
2022/09/10 11:18:35;;;;;;;14.20;6.63;;;18.20;99.90;;;;;;5093886;28;20075;-73
2022/09/10 11:21:30;;;;;;;14.27;7.28;;;18.30;99.90;;;;;;5092658;28;20055;-73
2022/09/10 11:24:08;;;;;;;13.20;6.50;;;18.40;99.90;;;;;;5093978;28;20059;-74
2022/09/10 11:26:43;;;;;;;13.50;7.32;;;18.70;99.90;;;;;;5092767;28;20075;-74
2022/09/10 11:29:29;;;;;;;13.70;7.00;;;18.80;99.90;;;;;;5094103;28;20047;-75
2022/09/10 11:32:26;;;;;;;15.75;7.25;;;18.90;99.90;;;;;;5093617;28;20499;-74
2022/09/10 11:35:22;;;;;;;13.82;6.85;;;18.90;99.90;;;;;;5092488;28;20437;-74
2022/09/10 11:38:17;;;;;;;13.00;6.35;;;19.00;99.90;;;;;;5093860;28;20048;-74
2022/09/10 11:41:07;;;;;;;13.18;6.95;;;18.90;99.90;;;;;;5093633;28;20044;-73
2022/09/10 11:43:41;;;;;;;18.40;10.20;;;19.00;99.90;;;;;;5093894;28;20083;-75
2022/09/10 11:46:22;;;;;;;13.85;6.95;;;19.00;99.90;;;;;;5093672;28;20438;-74
2022/09/10 11:49:02;;;;;;;14.07;6.63;;;19.00;99.90;;;;;;5091790;28;20105;-75
2022/09/10 11:51:35;;;;;;;12.43;6.78;;;19.10;99.90;;;;;;5053214;28;20145;-72
2022/09/10 11:54:08;;;;;;;12.65;6.18;;;19.00;99.90;;;;;;5053404;28;20041;-74
2022/09/10 11:57:11;;;;;;;13.52;5.97;;;19.10;99.90;;;;;;5053591;28;20045;-73
2022/09/10 11:59:49;;;;;;;10.43;5.53;;;19.10;99.90;;;;;;5052095;28;20076;-75
2022/09/10 12:02:52;;;;;;;12.48;5.32;;;19.10;99.90;;;;;;5052994;28;20536;-74
2022/09/10 12:05:41;;;;;;;10.57;5.03;;;19.20;99.90;;;;;;5051131;28;20064;-75
2022/09/10 12:08:34;;;;;;;11.70;6.22;;;19.30;99.90;;;;;;5035150;28;20630;-74
2022/09/10 12:11:15;;;;;;;11.07;6.22;;;19.40;99.90;;;;;;5053050;28;20393;-72
2022/09/10 12:13:44;;;;;;;14.02;6.72;;;19.50;99.90;;;;;;5051608;28;20049;-75
2022/09/10 12:16:42;;;;;;;14.52;7.38;;;19.50;99.90;;;;;;5052937;28;20045;-77
2022/09/10 12:19:30;;;;;;;14.43;7.32;;;19.50;99.90;;;;;;5051793;28;20041;-75
2022/09/10 12:22:02;;;;;;;15.00;7.57;;;19.50;99.90;;;;;;5051460;28;20108;-74
2022/09/10 12:24:31;;;;;;;12.07;6.20;;;19.50;99.90;;;;;;5052488;28;20045;-74
2022/09/10 12:26:59;;;;;;;13.48;6.75;;;19.60;99.90;;;;;;5052765;28;20052;-74
2022/09/10 12:29:29;;;;;;;14.32;6.80;;;19.70;99.90;;;;;;5052556;28;20396;-75
2022/09/10 12:32:07;;;;;;;12.38;6.07;;;19.70;99.90;;;;;;5051485;28;20060;-73
2022/09/10 12:34:36;;;;;;;12.13;5.47;;;19.70;99.90;;;;;;5051696;28;20041;-74
2022/09/10 12:37:02;;;;;;;10.82;5.90;;;19.70;99.90;;;;;;5051106;28;20045;-74
2022/09/10 12:39:29;;;;;;;12.30;5.60;;;19.70;99.90;;;;;;5052700;28;20499;-75
2022/09/10 12:41:57;;;;;;;13.57;6.05;;;19.60;99.90;;;;;;5051101;28;20516;-76
2022/09/10 12:44:35;;;;;;;14.20;6.70;;;19.60;99.90;;;;;;5052772;28;20519;-75
2022/09/10 12:47:15;;;;;;;12.73;5.50;;;19.50;99.90;;;;;;5051203;28;20045;-72
2022/09/10 12:50:19;;;;;;;12.10;6.45;;;19.40;99.90;;;;;;5065266;28;20056;-74
2022/09/10 12:52:51;;;;;;;11.48;5.55;;;19.30;99.90;;;;;;5098258;28;20109;-72
2022/09/10 12:55:54;;;;;;;13.45;6.30;;;19.30;99.90;;;;;;5092409;28;20480;-75
2022/09/10 12:58:37;;;;;;;11.82;6.05;;;19.30;99.90;;;;;;5092478;28;20044;-74
2022/09/10 13:01:36;;;;;;;12.10;5.72;;;19.20;99.90;;;;;;5091260;28;20130;-74
2022/09/10 13:04:02;;;;;;;12.27;5.53;;;19.20;99.90;;;;;;5092509;28;20080;-73
2022/09/10 13:06:38;;;;;;;12.68;5.78;;;19.20;99.90;;;;;;5091105;28;20131;-73
2022/09/10 13:09:19;;;;;;;12.23;6.60;;;19.30;99.90;;;;;;5092418;28;20063;-73
2022/09/10 13:11:52;;;;;;;11.82;6.28;;;19.30;99.90;;;;;;5092818;28;20040;-71
2022/09/10 13:14:38;;;;;;;11.38;5.82;;;19.40;99.90;;;;;;5091652;28;20044;-74
2022/09/10 13:17:05;;;;;;;12.13;6.25;;;19.50;99.90;;;;;;5093841;28;20097;-73
2022/09/10 13:19:30;;;;;;;13.52;6.97;;;19.50;99.90;;;;;;5107473;28;20048;-74
2022/09/10 13:21:56;;;;;;;13.93;6.68;;;19.60;99.90;;;;;;5091999;28;20102;-74
2022/09/10 13:24:34;;;;;;;12.80;6.38;;;19.70;99.90;;;;;;5090845;28;20036;-74
2022/09/10 13:27:19;;;;;;;15.32;7.13;;;19.90;99.90;;;;;;5092410;28;20500;-74
2022/09/10 13:29:53;;;;;;;12.57;7.15;;;20.00;99.90;;;;;;5092318;28;20043;-75
2022/09/10 13:32:37;;;;;;;14.02;7.68;;;20.00;99.90;;;;;;5091274;28;20442;-74
2022/09/10 13:35:21;;;;;;;16.38;7.30;;;20.00;99.90;;;;;;5092288;28;20082;-75
2022/09/10 13:38:08;;;;;;;14.55;7.50;;;20.00;99.90;;;;;;5094070;28;20274;-73
2022/09/10 13:40:56;;;;;;;14.95;7.82;;;20.00;99.90;;;;;;5096011;28;20059;-74
2022/09/10 13:43:43;;;;;;;12.70;7.03;;;20.00;99.90;;;;;;5094942;28;20485;-74
2022/09/10 13:46:31;;;;;;;13.13;6.90;;;20.00;99.90;;;;;;5095932;28;20119;-74
2022/09/10 13:49:05;;;;;;;13.63;6.97;;;20.00;99.90;;;;;;5095602;28;20416;-75
2022/09/10 13:51:37;;;;;;;13.70;6.90;;;20.10;99.90;;;;;;5094152;28;20048;-74
2022/09/10 13:54:12;;;;;;;16.45;7.65;;;20.20;99.90;;;;;;5095619;28;20108;-74
2022/09/10 13:56:41;;;;;;;14.75;8.70;;;20.20;99.90;;;;;;5095967;28;20146;-75
2022/09/10 13:59:21;;;;;;;14.63;8.40;;;20.20;99.90;;;;;;5095826;28;20479;-76
2022/09/10 14:01:52;;;;;;;13.63;7.97;;;20.30;99.90;;;;;;5095546;28;20093;-79
2022/09/10 14:04:25;;;;;;;14.77;8.20;;;20.30;99.90;;;;;;5095646;28;20040;-76
2022/09/10 14:06:53;;;;;;;16.58;8.63;;;20.40;99.90;;;;;;5077560;28;20059;-75
2022/09/10 14:09:19;;;;;;;15.85;8.32;;;20.30;99.90;;;;;;5093904;28;20044;-78
2022/09/10 14:11:45;;;;;;;15.13;7.95;;;20.30;99.90;;;;;;5094185;28;20044;-76
2022/09/10 14:14:19;;;;;;;13.95;7.60;;;20.40;99.90;;;;;;5094063;28;20040;-75
2022/09/10 14:16:48;;;;;;;17.65;8.73;;;20.50;99.90;;;;;;5111204;28;20510;-75
2022/09/10 14:19:39;;;;;;;19.85;9.52;;;20.50;99.90;;;;;;5094297;28;20056;-74
2022/09/10 14:22:05;;;;;;;14.02;7.75;;;20.40;99.90;;;;;;5095467;28;20048;-74
2022/09/10 14:24:43;;;;;;;16.85;8.80;;;20.50;99.90;;;;;;5101808;27;20040;-74
2022/09/10 14:27:12;;;;;;;13.65;8.05;;;20.50;99.90;;;;;;5109174;22;20051;-75
2022/09/10 14:29:38;;;;;;;14.60;7.82;;;20.50;99.90;;;;;;5060267;28;20095;-76
2022/09/10 14:32:38;;;;;;;16.60;8.98;;;20.50;99.90;;;;;;5061456;28;20145;-76
2022/09/10 14:35:45;;;;;;;14.65;7.45;;;20.60;99.90;;;;;;5055405;28;20087;-75
2022/09/10 14:38:21;;;;;;;14.20;7.07;;;20.80;99.90;;;;;;5057010;28;20086;-78
2022/09/10 14:40:48;;;;;;;17.83;8.43;;;20.90;99.90;;;;;;5070409;28;20062;-74
2022/09/10 14:43:41;;;;;;;13.02;6.93;;;21.00;99.90;;;;;;5088433;22;20527;-80
2022/09/10 14:46:09;;;;;;;13.65;6.82;;;21.00;99.90;;;;;;5059587;28;20060;-79
2022/09/10 14:48:40;;;;;;;12.68;6.07;;;20.90;99.90;;;;;;5074343;28;20051;-80
2022/09/10 14:51:09;;;;;;;12.32;6.07;;;21.00;99.90;;;;;;5054504;28;20064;-78
2022/09/10 14:53:58;;;;;;;14.30;7.07;;;21.00;99.90;;;;;;5068090;22;20069;-77
2022/09/10 14:56:27;;;;;;;12.85;7.47;;;21.00;99.90;;;;;;5061409;28;20085;-75
2022/09/10 14:59:19;;;;;;;14.50;7.80;;;21.00;99.90;;;;;;5074232;28;20055;-77
2022/09/10 15:01:47;;;;;;;14.93;7.78;;;21.10;99.90;;;;;;5029065;28;20085;-77
2022/09/10 15:04:19;;;;;;;18.90;7.97;;;21.20;99.90;;;;;;5073932;28;20100;-78
2022/09/10 15:06:45;;;;;;;17.75;8.98;;;21.10;99.90;;;;;;5074223;28;20033;-79
2022/09/10 15:09:13;;;;;;;13.95;7.82;;;21.10;99.90;;;;;;5073816;28;20067;-76
2022/09/10 15:12:08;;;;;;;15.35;6.93;;;20.90;99.90;;;;;;5073412;28;20106;-76
2022/09/10 15:14:35;;;;;;;14.27;7.25;;;20.70;99.90;;;;;;5073871;28;20044;-74
2022/09/10 15:17:00;;;;;;;15.65;7.13;;;20.60;99.90;;;;;;5056178;28;20065;-73
2022/09/10 15:19:43;;;;;;;13.77;7.20;;;20.70;99.90;;;;;;5073687;28;20365;-77
2022/09/10 15:22:43;;;;;;;13.05;7.07;;;21.00;99.90;;;;;;5071667;28;20037;-78
2022/09/10 15:25:43;;;;;;;14.38;7.38;;;21.00;99.90;;;;;;4985854;28;20051;-75
2022/09/10 15:28:09;;;;;;;11.63;6.25;;;21.00;99.90;;;;;;4972165;28;20600;-76
2022/09/10 15:30:37;;;;;;;13.88;6.93;;;20.80;99.90;;;;;;4985252;28;20034;-74
2022/09/10 15:33:07;;;;;;;12.43;5.97;;;20.60;99.90;;;;;;4986755;28;20039;-74
2022/09/10 15:35:40;;;;;;;13.95;7.07;;;20.40;99.90;;;;;;4975776;28;20053;-75
2022/09/10 15:38:08;;;;;;;13.20;6.45;;;20.10;99.90;;;;;;4992327;28;20047;-75
2022/09/10 15:40:46;;;;;;;14.35;8.68;;;20.10;99.90;;;;;;4992430;28;20085;-75
2022/09/10 15:43:12;;;;;;;16.25;8.70;;;20.00;99.90;;;;;;4974920;28;20052;-75
2022/09/10 15:45:41;;;;;;;14.57;8.35;;;19.90;99.90;;;;;;4992340;28;20077;-76
2022/09/10 15:48:12;;;;;;;19.70;9.20;;;19.80;99.90;;;;;;4992673;28;20049;-80
2022/09/10 15:50:37;;;;;;;14.32;8.10;;;19.80;99.90;;;;;;5009910;28;20092;-75
2022/09/10 15:53:06;;;;;;;14.50;7.93;;;19.80;99.90;;;;;;4972508;28;20122;-78
2022/09/10 15:55:33;;;;;;;18.13;10.15;;;19.80;99.90;;;;;;4972363;28;20727;-78
2022/09/10 15:57:59;;;;;;;15.52;9.02;;;19.70;99.90;;;;;;4958555;28;20039;-77
2022/09/10 16:00:27;;;;;;;20.02;9.63;;;19.70;99.90;;;;;;4986087;28;20057;-79
2022/09/10 16:03:05;;;;;;;16.58;8.85;;;19.50;99.90;;;;;;5045923;28;20397;-75
2022/09/10 16:05:34;;;;;;;18.83;8.25;;;19.50;99.90;;;;;;5053150;28;20045;-76
2022/09/10 16:09:07;;;;;;;17.35;9.65;;;19.40;99.90;;;;;;5016998;28;20053;-79
2022/09/10 16:11:51;;;;;;;19.80;9.25;;;19.30;99.90;;;;;;5024869;28;20137;-78
2022/09/10 16:14:17;;;;;;;17.70;8.27;;;19.30;99.90;;;;;;5014826;28;20053;-77
2022/09/10 16:16:46;;;;;;;14.73;8.70;;;19.20;99.90;;;;;;5030602;28;20430;-78
2022/09/10 16:19:12;;;;;;;14.15;8.15;;;19.20;99.90;;;;;;5014186;28;20610;-76
2022/09/10 16:21:38;;;;;;;17.17;9.82;;;19.20;99.90;;;;;;5004004;28;20540;-73
2022/09/10 16:24:05;;;;;;;18.08;9.63;;;19.10;99.90;;;;;;5030508;28;20049;-72
2022/09/10 16:26:34;;;;;;;17.10;9.52;;;19.10;99.90;;;;;;5029841;28;20052;-76
2022/09/10 16:29:19;;;;;;;16.70;8.98;;;19.00;99.90;;;;;;5019226;28;20075;-77
2022/09/10 16:31:45;;;;;;;17.17;10.02;;;19.00;99.90;;;;;;5022178;28;20049;-77
2022/09/10 16:34:14;;;;;;;17.90;8.57;;;18.90;99.90;;;;;;5020090;28;20064;-73
2022/09/10 16:36:41;;;;;;;16.27;8.48;;;18.80;99.90;;;;;;5019741;28;20676;-77
2022/09/10 16:39:12;;;;;;;16.48;8.77;;;18.80;99.90;;;;;;5034342;28;20408;-73
2022/09/10 16:41:40;;;;;;;16.00;8.52;;;18.80;99.90;;;;;;5025721;28;20140;-70
2022/09/10 16:44:07;;;;;;;18.50;10.10;;;18.80;99.90;;;;;;5027761;28;20045;-72
2022/09/10 16:46:34;;;;;;;20.50;9.20;;;18.70;99.90;;;;;;5047773;28;20060;-75
2022/09/10 16:49:00;;;;;;;16.60;9.02;;;18.60;99.90;;;;;;5044413;28;20033;-78
2022/09/10 16:51:27;;;;;;;16.38;8.57;;;18.60;99.90;;;;;;5041105;28;20121;-78
2022/09/10 16:54:01;;;;;;;17.33;9.25;;;18.60;99.90;;;;;;5045090;28;20049;-79
2022/09/10 16:56:38;;;;;;;19.02;9.20;;;18.60;99.90;;;;;;5069824;28;20094;-78
2022/09/10 16:59:08;;;;;;;15.93;8.48;;;18.50;99.90;;;;;;5053916;28;20056;-78
2022/09/10 17:01:35;;;;;;;16.38;8.88;;;18.40;99.90;;;;;;5036312;28;20098;-81
2022/09/10 17:04:02;;;;;;;15.57;8.50;;;18.40;99.90;;;;;;5071855;28;20049;-79
2022/09/10 17:06:29;;;;;;;16.80;8.90;;;18.40;99.90;;;;;;5072056;28;20119;-77
2022/09/10 17:08:57;;;;;;;17.38;9.20;;;18.30;99.90;;;;;;5053642;28;20056;-79
2022/09/10 17:11:30;;;;;;;18.88;9.27;;;18.30;99.90;;;;;;5054152;28;20515;-76
2022/09/10 17:13:57;;;;;;;17.05;8.77;;;18.30;99.90;;;;;;5075354;28;20068;-78
2022/09/10 17:16:29;;;;;;;17.10;8.75;;;18.30;99.90;;;;;;5075281;28;20040;-76
2022/09/10 17:19:22;;;;;;;15.32;8.40;;;18.30;99.90;;;;;;5075943;28;20499;-77
2022/09/10 17:21:53;;;;;;;15.95;7.97;;;18.20;99.90;;;;;;5062255;28;20056;-76
2022/09/10 17:24:21;;;;;;;16.63;8.77;;;18.30;99.90;;;;;;5045755;28;20492;-77
2022/09/10 17:26:47;;;;;;;18.30;8.85;;;18.30;99.90;;;;;;5054578;28;20504;-75
2022/09/10 17:29:15;;;;;;;16.52;9.07;;;18.30;99.90;;;;;;5040202;28;20056;-77
2022/09/10 17:31:45;;;;;;;17.38;8.88;;;18.30;99.90;;;;;;5075983;28;20054;-77
2022/09/10 17:34:12;;;;;;;14.55;8.35;;;18.20;99.90;;;;;;5075643;28;20136;-74
2022/09/10 17:36:38;;;;;;;15.75;8.50;;;18.20;99.90;;;;;;5056937;28;20067;-79
2022/09/10 17:39:05;;;;;;;14.85;7.65;;;18.20;99.90;;;;;;5057581;28;20048;-76
2022/09/10 17:41:31;;;;;;;17.75;8.77;;;18.10;99.90;;;;;;5056777;28;20056;-78
2022/09/10 17:43:58;;;;;;;18.08;8.77;;;18.10;99.90;;;;;;5039331;28;20060;-77
2022/09/10 17:46:25;;;;;;;14.95;8.75;;;18.00;99.90;;;;;;5057220;28;20044;-76
2022/09/10 17:48:52;;;;;;;18.83;11.15;;;18.00;99.90;;;;;;5075205;28;20052;-74
2022/09/10 17:51:23;;;;;;;16.75;8.85;;;17.90;99.90;;;;;;5075401;28;20048;-73
2022/09/10 17:53:50;;;;;;;18.95;9.65;;;17.80;99.90;;;;;;5057071;28;20048;-77
2022/09/10 17:56:18;;;;;;;18.85;9.75;;;17.80;99.90;;;;;;5075119;28;20571;-78
2022/09/10 17:58:45;;;;;;;16.73;8.80;;;17.70;99.90;;;;;;5075554;28;20052;-79
2022/09/10 18:01:24;;;;;;;16.40;8.38;;;17.60;99.90;;;;;;5057326;28;20049;-74
2022/09/10 18:03:50;;;;;;;16.88;8.45;;;17.60;99.90;;;;;;5075125;28;20044;-74
2022/09/10 18:06:16;;;;;;;16.40;9.60;;;17.50;99.90;;;;;;5075153;28;20185;-72
2022/09/10 18:08:42;;;;;;;17.15;9.52;;;17.50;99.90;;;;;;5075121;28;20152;-74
2022/09/10 18:11:35;;;;;;;17.85;8.70;;;17.40;99.90;;;;;;5075119;28;20477;-74
2022/09/10 18:14:01;;;;;;;16.92;9.80;;;17.30;99.90;;;;;;5070741;28;20053;-72
2022/09/10 18:16:30;;;;;;;18.10;9.50;;;17.20;99.90;;;;;;5074717;28;20063;-79
2022/09/10 18:19:08;;;;;;;17.30;9.27;;;17.20;99.90;;;;;;5074777;28;20036;-79
2022/09/10 18:21:37;;;;;;;16.92;8.93;;;17.10;99.90;;;;;;5074755;28;20052;-76
2022/09/10 18:24:06;;;;;;;19.20;9.50;;;17.10;99.90;;;;;;5074492;28;20053;-74
2022/09/10 18:26:35;;;;;;;19.25;8.73;;;17.10;99.90;;;;;;5074526;28;20040;-73
2022/09/10 18:29:07;;;;;;;16.70;8.93;;;16.90;99.90;;;;;;5056951;28;20056;-74
2022/09/10 18:31:38;;;;;;;18.83;10.13;;;16.80;99.90;;;;;;5074404;28;20059;-75
2022/09/10 18:34:06;;;;;;;19.88;11.35;;;16.90;99.90;;;;;;5074538;28;20496;-73
2022/09/10 18:36:32;;;;;;;20.20;11.93;;;16.90;99.90;;;;;;5056638;28;20056;-72
2022/09/10 18:39:06;;;;;;;22.30;12.68;;;16.80;99.90;;;;;;5056601;28;20044;-74
2022/09/10 18:41:36;;;;;;;18.30;9.57;;;16.80;99.90;;;;;;5056893;28;20050;-73
2022/09/10 18:44:04;;;;;;;18.60;10.00;;;16.70;99.90;;;;;;5034441;28;20037;-71
2022/09/10 18:46:31;;;;;;;17.48;8.88;;;16.70;99.90;;;;;;5016609;28;20458;-73
2022/09/10 18:48:58;;;;;;;22.00;9.82;;;16.70;99.90;;;;;;5034587;28;20045;-73
2022/09/10 18:51:25;;;;;;;18.85;9.55;;;16.70;99.90;;;;;;5036221;28;20484;-74
2022/09/10 18:53:53;;;;;;;18.63;10.68;;;16.70;99.90;;;;;;5060202;28;20060;-73
2022/09/10 18:56:22;;;;;;;20.17;10.60;;;16.70;99.90;;;;;;5074138;28;20143;-72
2022/09/10 18:58:59;;;;;;;19.40;10.57;;;16.70;99.90;;;;;;5056134;28;20040;-71
2022/09/10 19:01:27;;;;;;;20.05;10.13;;;16.70;99.90;;;;;;5055190;28;20129;-78
2022/09/10 19:03:53;;;;;;;20.00;9.55;;;16.70;99.90;;;;;;5055874;28;20431;-74
2022/09/10 19:06:28;;;;;;;20.25;11.52;;;16.80;99.90;;;;;;5039626;28;20115;-76
2022/09/10 19:08:56;;;;;;;19.73;10.93;;;16.80;99.90;;;;;;5073529;28;20061;-76
2022/09/10 19:11:24;;;;;;;22.75;10.98;;;16.80;99.90;;;;;;5089329;28;20055;-75
2022/09/10 19:13:52;;;;;;;25.85;11.18;;;16.80;99.90;;;;;;5073493;28;20041;-77
2022/09/10 19:16:20;;;;;;;20.13;11.02;;;16.80;99.90;;;;;;5057636;28;20095;-76
2022/09/10 19:18:59;;;;;;;19.95;11.30;;;16.80;99.90;;;;;;5055773;28;20042;-76
2022/09/10 19:21:26;;;;;;;20.45;12.55;;;16.80;99.90;;;;;;5055380;28;20123;-77
2022/09/10 19:23:55;;;;;;;28.20;12.93;;;16.70;99.90;;;;;;5055622;28;20044;-77
2022/09/10 19:26:22;;;;;;;25.88;13.85;;;16.70;99.90;;;;;;5088921;28;20052;-73
2022/09/10 19:28:48;;;;;;;21.95;12.35;;;16.60;99.90;;;;;;5073387;28;20447;-70
2022/09/10 19:31:16;;;;;;;24.65;13.27;;;16.60;99.90;;;;;;5073092;28;20067;-78
2022/09/10 19:33:41;;;;;;;28.63;14.10;;;16.50;99.90;;;;;;5071476;28;20052;-78
2022/09/10 19:36:10;;;;;;;26.05;14.30;;;16.50;99.90;;;;;;5065115;28;20055;-76
2022/09/10 19:38:35;;;;;;;28.48;14.63;;;16.40;99.90;;;;;;5063286;28;20094;-75
2022/09/10 19:41:13;;;;;;;26.58;14.48;;;16.30;99.90;;;;;;5088734;28;20044;-77
2022/09/10 19:43:39;;;;;;;27.20;14.38;;;16.30;99.90;;;;;;5056838;28;20091;-78
2022/09/10 19:46:06;;;;;;;26.38;13.60;;;16.20;99.90;;;;;;5073343;28;20044;-77
2022/09/10 19:48:33;;;;;;;25.25;13.98;;;16.10;99.90;;;;;;5055247;28;20048;-75
2022/09/10 19:50:59;;;;;;;26.10;14.02;;;16.10;99.90;;;;;;5088762;28;20049;-77
2022/09/10 19:53:26;;;;;;;24.50;13.95;;;16.10;99.90;;;;;;5073198;28;20078;-78
2022/09/10 19:55:51;;;;;;;26.63;14.00;;;16.00;99.90;;;;;;5073086;28;20393;-77
2022/09/10 19:58:18;;;;;;;27.90;14.88;;;15.90;99.90;;;;;;5073192;28;20045;-75
2022/09/10 20:00:46;;;;;;;26.95;14.00;;;15.90;99.90;;;;;;5071762;28;20041;-74
2022/09/10 20:03:12;;;;;;;25.05;14.40;;;15.90;99.90;;;;;;5073186;28;20066;-75
2022/09/10 20:05:38;;;;;;;26.80;15.20;;;15.90;99.90;;;;;;5072981;28;20049;-78
2022/09/10 20:08:04;;;;;;;29.63;15.52;;;15.80;99.90;;;;;;5073019;28;20097;-78
2022/09/10 20:10:30;;;;;;;28.95;14.77;;;15.80;99.90;;;;;;5054887;28;20044;-75
2022/09/10 20:12:56;;;;;;;27.17;15.05;;;15.80;99.90;;;;;;5054951;28;20040;-74
2022/09/10 20:15:22;;;;;;;28.70;14.82;;;15.70;99.90;;;;;;5055043;28;20091;-79
2022/09/10 20:17:50;;;;;;;26.60;14.80;;;15.70;99.90;;;;;;5088785;28;20446;-77
2022/09/10 20:20:17;;;;;;;31.77;15.23;;;15.70;99.90;;;;;;5072653;28;20086;-76
2022/09/10 20:22:43;;;;;;;27.40;14.82;;;15.70;99.90;;;;;;5071552;28;20042;-74
2022/09/10 20:25:08;;;;;;;28.08;14.40;;;15.60;99.90;;;;;;5072688;28;20041;-75
2022/09/10 20:27:35;;;;;;;29.65;15.75;;;15.60;99.90;;;;;;5072770;28;20053;-78
2022/09/10 20:30:01;;;;;;;27.30;13.70;;;15.60;99.90;;;;;;5072586;28;20052;-72
2022/09/10 20:32:27;;;;;;;30.63;15.20;;;15.50;99.90;;;;;;5087939;28;20138;-76
2022/09/10 20:34:53;;;;;;;29.80;15.32;;;15.50;99.90;;;;;;5072095;28;20476;-71
2022/09/10 20:37:18;;;;;;;29.02;14.75;;;15.40;99.90;;;;;;5088038;28;20083;-74
2022/09/10 20:39:47;;;;;;;30.55;15.93;;;15.40;99.90;;;;;;5054474;28;20056;-72
2022/09/10 20:42:13;;;;;;;28.30;14.77;;;15.30;99.90;;;;;;5070798;28;20071;-72
2022/09/10 20:44:39;;;;;;;28.80;15.63;;;15.30;99.90;;;;;;5072136;28;20083;-74
2022/09/10 20:47:06;;;;;;;28.38;14.95;;;15.30;99.90;;;;;;5054586;28;20057;-72
2022/09/10 20:49:32;;;;;;;28.83;15.43;;;15.30;99.90;;;;;;5087614;28;20481;-73
2022/09/10 20:51:58;;;;;;;29.25;14.70;;;15.30;99.90;;;;;;5071999;28;20245;-78
2022/09/10 20:54:24;;;;;;;29.20;15.43;;;15.30;99.90;;;;;;5086740;28;20056;-73
2022/09/10 20:56:50;;;;;;;28.48;14.60;;;15.20;99.90;;;;;;5072254;28;20053;-77
2022/09/10 20:59:17;;;;;;;28.77;15.32;;;15.20;99.90;;;;;;5087999;28;20541;-77
2022/09/10 21:01:44;;;;;;;30.33;16.48;;;15.10;99.90;;;;;;5072380;28;20119;-74
2022/09/10 21:04:12;;;;;;;28.98;14.88;;;15.10;99.90;;;;;;5072481;28;20391;-75
2022/09/10 21:06:38;;;;;;;27.88;15.27;;;15.10;99.90;;;;;;5071868;28;20083;-77
2022/09/10 21:09:04;;;;;;;29.88;15.48;;;15.10;99.90;;;;;;5072071;28;20052;-77
2022/09/10 21:11:32;;;;;;;29.17;14.98;;;15.00;99.90;;;;;;5054146;28;20114;-77
2022/09/10 21:13:59;;;;;;;29.05;15.55;;;15.00;99.90;;;;;;5072121;28;20044;-79
2022/09/10 21:16:30;;;;;;;29.30;15.55;;;14.90;99.90;;;;;;5087485;28;20040;-77
2022/09/10 21:19:10;;;;;;;26.55;13.90;;;14.90;99.90;;;;;;5072226;28;20178;-78
2022/09/10 21:21:38;;;;;;;26.55;15.20;;;14.90;99.90;;;;;;5034151;28;20048;-77
2022/09/10 21:24:07;;;;;;;27.92;13.80;;;14.90;99.90;;;;;;5059632;28;20049;-77
2022/09/10 21:26:37;;;;;;;24.63;12.50;;;14.80;99.90;;;;;;5072802;28;20040;-76
2022/09/10 21:29:06;;;;;;;23.40;12.63;;;14.70;99.90;;;;;;5069662;28;20037;-77
2022/09/10 21:31:32;;;;;;;22.88;11.25;;;14.70;99.90;;;;;;5071638;28;20045;-76
2022/09/10 21:33:59;;;;;;;23.92;10.88;;;14.60;99.90;;;;;;5053899;28;20063;-77
2022/09/10 21:36:25;;;;;;;19.48;9.95;;;14.60;99.90;;;;;;5073888;28;20037;-76
2022/09/10 21:38:57;;;;;;;17.67;9.55;;;14.50;99.90;;;;;;5072129;28;20511;-76
2022/09/10 21:41:26;;;;;;;19.10;10.13;;;14.40;99.90;;;;;;5072097;28;20044;-75
2022/09/10 21:43:52;;;;;;;18.98;9.63;;;14.40;99.90;;;;;;5072257;28;20050;-78
2022/09/10 21:46:22;;;;;;;19.67;9.57;;;14.40;99.90;;;;;;5072129;28;20049;-77
2022/09/10 21:48:48;;;;;;;17.08;8.82;;;14.40;99.90;;;;;;5037126;28;20057;-75
2022/09/10 21:51:16;;;;;;;18.85;9.48;;;14.40;99.90;;;;;;5054184;28;20154;-76
2022/09/10 21:53:43;;;;;;;22.75;11.50;;;14.20;99.90;;;;;;5053609;28;20076;-78
2022/09/10 21:56:14;;;;;;;21.10;10.43;;;14.20;99.90;;;;;;5053469;28;20063;-76